sensor_id;sensor_type;location;lat;lon;timestamp;P1;durP1;ratioP1;P2;durP2;ratioP2
33926;SDS011;20485;50.992;5.550;2023-02-11T02:11:17;37.75;;;19.23;;
33926;SDS011;20485;50.992;5.550;2023-02-11T02:13:50;47.90;;;19.48;;
33926;SDS011;20485;50.992;5.550;2023-02-11T02:35:39;43.45;;;17.85;;
33926;SDS011;20485;50.992;5.550;2023-02-11T02:41:34;39.90;;;16.90;;
33926;SDS011;20485;50.992;5.550;2023-02-11T02:50:33;37.45;;;16.05;;
33926;SDS011;20485;50.992;5.550;2023-02-11T02:53:11;37.38;;;16.85;;
33926;SDS011;20485;50.992;5.550;2023-02-11T02:56:10;41.40;;;16.30;;
33926;SDS011;20485;50.992;5.550;2023-02-11T02:58:59;31.52;;;15.35;;
33926;SDS011;20485;50.992;5.550;2023-02-11T03:54:12;32.22;;;13.10;;
33926;SDS011;20485;50.992;5.550;2023-02-11T03:56:53;31.15;;;12.73;;
33926;SDS011;20485;50.992;5.550;2023-02-11T03:59:21;29.52;;;13.25;;
33926;SDS011;20485;50.992;5.550;2023-02-11T04:01:49;39.70;;;13.70;;
33926;SDS011;20485;50.992;5.550;2023-02-11T04:04:15;35.80;;;13.50;;
33926;SDS011;20485;50.992;5.550;2023-02-11T04:06:51;38.13;;;13.82;;
33926;SDS011;20485;50.992;5.550;2023-02-11T04:09:34;36.10;;;14.07;;
33926;SDS011;20485;50.992;5.550;2023-02-11T04:12:04;32.72;;;13.25;;
33926;SDS011;20485;50.992;5.550;2023-02-11T04:14:37;29.42;;;13.13;;
33926;SDS011;20485;50.992;5.550;2023-02-11T04:34:31;31.15;;;12.65;;
33926;SDS011;20485;50.992;5.550;2023-02-11T04:40:08;32.03;;;12.15;;
33926;SDS011;20485;50.992;5.550;2023-02-11T04:42:49;32.35;;;12.93;;
33926;SDS011;20485;50.992;5.550;2023-02-11T04:45:33;34.90;;;13.30;;
33926;SDS011;20485;50.992;5.550;2023-02-11T08:27:47;75.15;;;27.92;;
33926;SDS011;20485;50.992;5.550;2023-02-11T08:30:13;66.32;;;27.80;;
33926;SDS011;20485;50.992;5.550;2023-02-11T08:32:39;81.05;;;28.08;;
33926;SDS011;20485;50.992;5.550;2023-02-11T11:18:53;97.85;;;35.97;;
33926;SDS011;20485;50.992;5.550;2023-02-11T11:21:50;88.05;;;34.90;;
33926;SDS011;20485;50.992;5.550;2023-02-11T11:24:33;92.13;;;34.53;;
33926;SDS011;20485;50.992;5.550;2023-02-11T11:27:14;97.15;;;36.42;;
33926;SDS011;20485;50.992;5.550;2023-02-11T11:29:47;99.80;;;36.70;;
33926;SDS011;20485;50.992;5.550;2023-02-11T11:32:23;89.20;;;37.47;;
33926;SDS011;20485;50.992;5.550;2023-02-11T11:38:02;89.90;;;34.83;;
33926;SDS011;20485;50.992;5.550;2023-02-11T11:43:05;112.45;;;37.20;;
33926;SDS011;20485;50.992;5.550;2023-02-11T11:48:54;82.63;;;33.27;;
33926;SDS011;20485;50.992;5.550;2023-02-11T11:51:26;91.32;;;35.83;;
33926;SDS011;20485;50.992;5.550;2023-02-11T11:54:09;94.53;;;35.78;;
33926;SDS011;20485;50.992;5.550;2023-02-11T11:59:12;88.43;;;35.65;;
33926;SDS011;20485;50.992;5.550;2023-02-11T12:11:35;99.40;;;36.80;;
33926;SDS011;20485;50.992;5.550;2023-02-11T13:17:36;98.07;;;37.10;;
33926;SDS011;20485;50.992;5.550;2023-02-11T13:20:24;98.32;;;38.33;;
33926;SDS011;20485;50.992;5.550;2023-02-11T13:23:07;94.45;;;35.70;;
33926;SDS011;20485;50.992;5.550;2023-02-11T13:31:24;89.75;;;36.72;;
33926;SDS011;20485;50.992;5.550;2023-02-11T13:33:53;97.65;;;37.72;;
33926;SDS011;20485;50.992;5.550;2023-02-11T13:36:36;100.82;;;37.08;;
33926;SDS011;20485;50.992;5.550;2023-02-11T13:39:19;90.18;;;36.92;;
33926;SDS011;20485;50.992;5.550;2023-02-11T13:41:46;92.00;;;35.42;;
33926;SDS011;20485;50.992;5.550;2023-02-11T13:47:06;92.38;;;35.95;;
33926;SDS011;20485;50.992;5.550;2023-02-11T13:52:46;91.10;;;37.03;;
33926;SDS011;20485;50.992;5.550;2023-02-11T13:58:18;95.68;;;37.45;;
33926;SDS011;20485;50.992;5.550;2023-02-11T14:14:25;89.45;;;36.38;;
33926;SDS011;20485;50.992;5.550;2023-02-11T17:32:11;86.40;;;36.65;;
33926;SDS011;20485;50.992;5.550;2023-02-11T17:34:38;84.43;;;35.92;;
33926;SDS011;20485;50.992;5.550;2023-02-11T17:37:04;81.30;;;34.55;;
33926;SDS011;20485;50.992;5.550;2023-02-11T17:39:36;83.00;;;35.00;;
33926;SDS011;20485;50.992;5.550;2023-02-11T17:42:04;88.40;;;34.45;;
33926;SDS011;20485;50.992;5.550;2023-02-11T17:44:32;79.25;;;34.60;;
33926;SDS011;20485;50.992;5.550;2023-02-11T17:47:00;85.50;;;33.88;;
33926;SDS011;20485;50.992;5.550;2023-02-11T17:49:26;81.88;;;35.22;;
33926;SDS011;20485;50.992;5.550;2023-02-11T17:51:52;84.15;;;34.92;;
33926;SDS011;20485;50.992;5.550;2023-02-11T17:54:18;86.72;;;33.70;;
33926;SDS011;20485;50.992;5.550;2023-02-11T17:56:45;80.75;;;34.83;;
33926;SDS011;20485;50.992;5.550;2023-02-11T17:59:19;89.63;;;35.70;;
33926;SDS011;20485;50.992;5.550;2023-02-11T18:01:46;91.10;;;35.72;;
33926;SDS011;20485;50.992;5.550;2023-02-11T18:04:13;91.40;;;37.28;;
33926;SDS011;20485;50.992;5.550;2023-02-11T18:06:48;88.30;;;36.75;;
33926;SDS011;20485;50.992;5.550;2023-02-11T18:09:15;93.53;;;36.95;;
33926;SDS011;20485;50.992;5.550;2023-02-11T18:11:53;79.68;;;34.72;;
33926;SDS011;20485;50.992;5.550;2023-02-11T18:14:19;79.07;;;35.15;;
33926;SDS011;20485;50.992;5.550;2023-02-11T18:16:53;85.20;;;36.13;;
33926;SDS011;20485;50.992;5.550;2023-02-11T18:19:19;93.47;;;38.40;;
33926;SDS011;20485;50.992;5.550;2023-02-11T18:21:49;91.00;;;35.35;;
33926;SDS011;20485;50.992;5.550;2023-02-11T18:24:16;97.03;;;35.92;;
33926;SDS011;20485;50.992;5.550;2023-02-11T18:29:13;99.32;;;36.75;;
33926;SDS011;20485;50.992;5.550;2023-02-11T18:36:35;83.85;;;37.72;;
33926;SDS011;20485;50.992;5.550;2023-02-11T18:39:02;86.15;;;35.60;;
33926;SDS011;20485;50.992;5.550;2023-02-11T18:41:28;83.30;;;35.58;;
33926;SDS011;20485;50.992;5.550;2023-02-11T18:43:56;83.63;;;36.03;;
33926;SDS011;20485;50.992;5.550;2023-02-11T18:46:23;79.50;;;33.75;;
33926;SDS011;20485;50.992;5.550;2023-02-11T18:48:49;80.93;;;33.40;;
33926;SDS011;20485;50.992;5.550;2023-02-11T18:51:17;86.68;;;34.58;;
33926;SDS011;20485;50.992;5.550;2023-02-11T18:53:49;76.93;;;32.88;;
33926;SDS011;20485;50.992;5.550;2023-02-11T18:56:16;69.38;;;32.13;;
33926;SDS011;20485;50.992;5.550;2023-02-11T18:58:44;86.93;;;35.42;;
33926;SDS011;20485;50.992;5.550;2023-02-11T19:01:18;83.07;;;33.60;;
33926;SDS011;20485;50.992;5.550;2023-02-11T19:03:48;81.38;;;34.15;;
33926;SDS011;20485;50.992;5.550;2023-02-11T19:06:20;85.97;;;33.00;;
33926;SDS011;20485;50.992;5.550;2023-02-11T19:08:52;84.90;;;34.90;;
33926;SDS011;20485;50.992;5.550;2023-02-11T19:11:21;85.07;;;33.70;;
33926;SDS011;20485;50.992;5.550;2023-02-11T19:16:41;81.93;;;33.85;;
33926;SDS011;20485;50.992;5.550;2023-02-11T19:19:09;81.55;;;35.60;;
33926;SDS011;20485;50.992;5.550;2023-02-11T19:21:36;85.20;;;35.75;;
33926;SDS011;20485;50.992;5.550;2023-02-11T19:24:05;85.68;;;35.67;;
33926;SDS011;20485;50.992;5.550;2023-02-11T19:26:36;73.15;;;34.40;;
